sensor_id;sensor_type;location;lat;lon;timestamp;P1;durP1;ratioP1;P2;durP2;ratioP2
57191;SDS011;43052;52.588;13.396;2022-09-09T00:00:48;14.93;;;11.38;;
57191;SDS011;43052;52.588;13.396;2022-09-09T00:03:23;14.82;;;11.30;;
57191;SDS011;43052;52.588;13.396;2022-09-09T00:11:12;18.20;;;12.32;;
57191;SDS011;43052;52.588;13.396;2022-09-09T00:13:48;14.45;;;10.77;;
57191;SDS011;43052;52.588;13.396;2022-09-09T00:21:15;16.40;;;12.05;;
57191;SDS011;43052;52.588;13.396;2022-09-09T00:23:50;15.48;;;11.40;;
57191;SDS011;43052;52.588;13.396;2022-09-09T00:26:22;17.35;;;12.00;;
57191;SDS011;43052;52.588;13.396;2022-09-09T00:31:32;17.38;;;12.80;;
57191;SDS011;43052;52.588;13.396;2022-09-09T00:33:58;16.27;;;13.00;;
57191;SDS011;43052;52.588;13.396;2022-09-09T00:36:30;18.15;;;13.07;;
57191;SDS011;43052;52.588;13.396;2022-09-09T00:38:59;18.83;;;13.00;;
57191;SDS011;43052;52.588;13.396;2022-09-09T00:44:16;16.70;;;12.23;;
57191;SDS011;43052;52.588;13.396;2022-09-09T00:49:30;19.25;;;13.50;;
57191;SDS011;43052;52.588;13.396;2022-09-09T00:57:31;18.10;;;13.05;;
57191;SDS011;43052;52.588;13.396;2022-09-09T01:02:52;17.67;;;12.95;;
57191;SDS011;43052;52.588;13.396;2022-09-09T01:05:43;15.98;;;12.40;;
57191;SDS011;43052;52.588;13.396;2022-09-09T01:08:34;17.55;;;11.82;;
57191;SDS011;43052;52.588;13.396;2022-09-09T01:11:07;19.75;;;12.82;;
57191;SDS011;43052;52.588;13.396;2022-09-09T01:13:39;16.60;;;11.80;;
57191;SDS011;43052;52.588;13.396;2022-09-09T01:16:07;15.88;;;11.98;;
57191;SDS011;43052;52.588;13.396;2022-09-09T01:18:40;17.13;;;12.00;;
57191;SDS011;43052;52.588;13.396;2022-09-09T01:26:58;16.30;;;11.90;;
57191;SDS011;43052;52.588;13.396;2022-09-09T01:29:27;17.20;;;12.50;;
57191;SDS011;43052;52.588;13.396;2022-09-09T01:31:53;16.05;;;12.65;;
57191;SDS011;43052;52.588;13.396;2022-09-09T01:34:25;16.52;;;11.57;;
57191;SDS011;43052;52.588;13.396;2022-09-09T01:37:03;16.48;;;12.18;;
57191;SDS011;43052;52.588;13.396;2022-09-09T01:39:32;17.63;;;12.57;;
57191;SDS011;43052;52.588;13.396;2022-09-09T01:41:59;18.40;;;13.13;;
57191;SDS011;43052;52.588;13.396;2022-09-09T01:44:25;17.85;;;13.18;;
57191;SDS011;43052;52.588;13.396;2022-09-09T01:46:52;17.75;;;12.70;;
57191;SDS011;43052;52.588;13.396;2022-09-09T01:49:18;18.25;;;13.02;;
57191;SDS011;43052;52.588;13.396;2022-09-09T01:51:43;19.00;;;13.32;;
57191;SDS011;43052;52.588;13.396;2022-09-09T01:54:13;18.75;;;12.95;;
57191;SDS011;43052;52.588;13.396;2022-09-09T02:07:39;20.15;;;14.02;;
57191;SDS011;43052;52.588;13.396;2022-09-09T02:10:11;19.73;;;14.10;;
57191;SDS011;43052;52.588;13.396;2022-09-09T02:13:05;20.60;;;13.75;;
57191;SDS011;43052;52.588;13.396;2022-09-09T02:15:46;17.92;;;13.57;;
57191;SDS011;43052;52.588;13.396;2022-09-09T02:18:18;19.40;;;13.82;;
57191;SDS011;43052;52.588;13.396;2022-09-09T02:20:51;18.88;;;13.75;;
57191;SDS011;43052;52.588;13.396;2022-09-09T02:23:18;16.98;;;13.13;;
57191;SDS011;43052;52.588;13.396;2022-09-09T02:25:45;19.40;;;13.57;;
57191;SDS011;43052;52.588;13.396;2022-09-09T02:28:11;18.25;;;13.38;;
57191;SDS011;43052;52.588;13.396;2022-09-09T02:30:40;18.85;;;12.98;;
57191;SDS011;43052;52.588;13.396;2022-09-09T02:33:07;19.05;;;13.52;;
57191;SDS011;43052;52.588;13.396;2022-09-09T02:35:35;22.13;;;14.90;;
57191;SDS011;43052;52.588;13.396;2022-09-09T02:38:04;21.13;;;13.85;;
57191;SDS011;43052;52.588;13.396;2022-09-09T02:40:34;18.65;;;13.40;;
57191;SDS011;43052;52.588;13.396;2022-09-09T02:42:59;20.42;;;14.20;;
57191;SDS011;43052;52.588;13.396;2022-09-09T02:45:31;20.67;;;13.93;;
57191;SDS011;43052;52.588;13.396;2022-09-09T02:48:09;17.90;;;13.32;;
57191;SDS011;43052;52.588;13.396;2022-09-09T02:56:21;20.17;;;14.18;;
57191;SDS011;43052;52.588;13.396;2022-09-09T02:58:50;20.05;;;13.93;;
57191;SDS011;43052;52.588;13.396;2022-09-09T03:01:16;19.63;;;14.10;;
57191;SDS011;43052;52.588;13.396;2022-09-09T03:03:42;21.02;;;14.40;;
57191;SDS011;43052;52.588;13.396;2022-09-09T03:06:09;22.75;;;15.02;;
57191;SDS011;43052;52.588;13.396;2022-09-09T03:08:36;20.95;;;14.50;;
57191;SDS011;43052;52.588;13.396;2022-09-09T03:11:02;20.05;;;13.13;;
57191;SDS011;43052;52.588;13.396;2022-09-09T03:13:27;22.48;;;14.60;;
57191;SDS011;43052;52.588;13.396;2022-09-09T03:15:52;17.92;;;13.65;;
57191;SDS011;43052;52.588;13.396;2022-09-09T03:18:18;23.17;;;14.13;;
57191;SDS011;43052;52.588;13.396;2022-09-09T03:20:43;19.38;;;13.57;;
57191;SDS011;43052;52.588;13.396;2022-09-09T03:23:08;19.67;;;13.10;;
57191;SDS011;43052;52.588;13.396;2022-09-09T03:25:33;20.00;;;13.18;;
57191;SDS011;43052;52.588;13.396;2022-09-09T03:28:00;17.88;;;12.77;;
57191;SDS011;43052;52.588;13.396;2022-09-09T03:30:26;22.25;;;13.07;;
57191;SDS011;43052;52.588;13.396;2022-09-09T03:32:52;17.10;;;12.10;;
57191;SDS011;43052;52.588;13.396;2022-09-09T03:35:18;19.90;;;13.68;;
57191;SDS011;43052;52.588;13.396;2022-09-09T03:37:44;20.15;;;14.43;;
57191;SDS011;43052;52.588;13.396;2022-09-09T03:40:10;21.30;;;13.68;;
57191;SDS011;43052;52.588;13.396;2022-09-09T03:42:35;20.33;;;13.55;;
57191;SDS011;43052;52.588;13.396;2022-09-09T03:45:02;21.13;;;13.90;;
57191;SDS011;43052;52.588;13.396;2022-09-09T03:47:28;19.58;;;13.55;;
57191;SDS011;43052;52.588;13.396;2022-09-09T03:49:54;21.10;;;13.48;;
57191;SDS011;43052;52.588;13.396;2022-09-09T03:52:19;19.73;;;13.25;;
57191;SDS011;43052;52.588;13.396;2022-09-09T03:54:46;22.73;;;13.30;;
57191;SDS011;43052;52.588;13.396;2022-09-09T03:57:12;20.38;;;13.73;;
57191;SDS011;43052;52.588;13.396;2022-09-09T03:59:41;20.23;;;14.13;;
57191;SDS011;43052;52.588;13.396;2022-09-09T04:02:06;19.35;;;13.73;;
57191;SDS011;43052;52.588;13.396;2022-09-09T04:04:31;20.85;;;14.25;;
57191;SDS011;43052;52.588;13.396;2022-09-09T04:06:57;19.65;;;13.27;;
57191;SDS011;43052;52.588;13.396;2022-09-09T04:09:22;19.35;;;12.77;;
57191;SDS011;43052;52.588;13.396;2022-09-09T04:11:48;18.52;;;13.57;;
57191;SDS011;43052;52.588;13.396;2022-09-09T04:14:14;19.08;;;13.68;;
57191;SDS011;43052;52.588;13.396;2022-09-09T04:16:39;17.55;;;13.20;;
57191;SDS011;43052;52.588;13.396;2022-09-09T04:19:07;21.42;;;12.90;;
57191;SDS011;43052;52.588;13.396;2022-09-09T04:21:33;19.35;;;12.90;;
57191;SDS011;43052;52.588;13.396;2022-09-09T04:23:58;19.35;;;13.13;;
57191;SDS011;43052;52.588;13.396;2022-09-09T04:26:24;19.20;;;12.52;;
57191;SDS011;43052;52.588;13.396;2022-09-09T04:28:49;18.02;;;12.30;;
57191;SDS011;43052;52.588;13.396;2022-09-09T04:31:17;19.92;;;13.43;;
57191;SDS011;43052;52.588;13.396;2022-09-09T04:33:45;19.88;;;13.45;;
57191;SDS011;43052;52.588;13.396;2022-09-09T04:36:11;18.23;;;12.82;;
57191;SDS011;43052;52.588;13.396;2022-09-09T04:38:37;19.92;;;12.60;;
57191;SDS011;43052;52.588;13.396;2022-09-09T04:41:02;17.60;;;11.88;;
57191;SDS011;43052;52.588;13.396;2022-09-09T04:43:28;17.60;;;11.50;;
57191;SDS011;43052;52.588;13.396;2022-09-09T04:45:53;16.15;;;11.80;;
57191;SDS011;43052;52.588;13.396;2022-09-09T04:48:19;16.75;;;11.95;;
57191;SDS011;43052;52.588;13.396;2022-09-09T04:50:53;17.73;;;12.68;;
57191;SDS011;43052;52.588;13.396;2022-09-09T04:53:26;17.13;;;12.18;;
57191;SDS011;43052;52.588;13.396;2022-09-09T04:55:52;14.43;;;11.25;;
57191;SDS011;43052;52.588;13.396;2022-09-09T04:58:26;18.58;;;12.57;;
57191;SDS011;43052;52.588;13.396;2022-09-09T05:00:51;15.30;;;12.13;;
57191;SDS011;43052;52.588;13.396;2022-09-09T05:03:17;16.95;;;11.88;;
57191;SDS011;43052;52.588;13.396;2022-09-09T05:05:42;17.90;;;12.38;;
57191;SDS011;43052;52.588;13.396;2022-09-09T05:08:07;14.63;;;11.25;;
57191;SDS011;43052;52.588;13.396;2022-09-09T05:10:34;17.77;;;12.50;;
57191;SDS011;43052;52.588;13.396;2022-09-09T05:13:02;14.77;;;10.82;;
57191;SDS011;43052;52.588;13.396;2022-09-09T05:15:27;13.60;;;10.73;;
57191;SDS011;43052;52.588;13.396;2022-09-09T05:17:56;16.02;;;11.80;;
57191;SDS011;43052;52.588;13.396;2022-09-09T05:20:22;13.98;;;10.68;;
57191;SDS011;43052;52.588;13.396;2022-09-09T05:22:47;16.75;;;12.40;;
57191;SDS011;43052;52.588;13.396;2022-09-09T05:25:13;19.58;;;14.73;;
57191;SDS011;43052;52.588;13.396;2022-09-09T05:27:38;16.13;;;13.23;;
57191;SDS011;43052;52.588;13.396;2022-09-09T05:30:04;11.20;;;10.00;;
57191;SDS011;43052;52.588;13.396;2022-09-09T05:32:29;10.77;;;7.20;;
57191;SDS011;43052;52.588;13.396;2022-09-09T05:34:59;7.40;;;6.40;;
57191;SDS011;43052;52.588;13.396;2022-09-09T05:37:24;6.88;;;5.30;;
57191;SDS011;43052;52.588;13.396;2022-09-09T05:39:49;6.28;;;4.68;;
57191;SDS011;43052;52.588;13.396;2022-09-09T05:42:15;7.25;;;4.88;;
57191;SDS011;43052;52.588;13.396;2022-09-09T05:44:40;8.18;;;5.13;;
57191;SDS011;43052;52.588;13.396;2022-09-09T05:47:07;7.55;;;4.40;;
57191;SDS011;43052;52.588;13.396;2022-09-09T05:49:33;6.50;;;4.53;;
57191;SDS011;43052;52.588;13.396;2022-09-09T05:51:58;5.50;;;4.20;;
57191;SDS011;43052;52.588;13.396;2022-09-09T05:54:23;6.00;;;4.68;;
57191;SDS011;43052;52.588;13.396;2022-09-09T05:56:49;6.70;;;4.97;;
57191;SDS011;43052;52.588;13.396;2022-09-09T05:59:15;6.25;;;4.50;;
57191;SDS011;43052;52.588;13.396;2022-09-09T06:01:41;5.55;;;3.85;;
57191;SDS011;43052;52.588;13.396;2022-09-09T06:04:07;5.60;;;4.53;;
57191;SDS011;43052;52.588;13.396;2022-09-09T06:06:34;7.25;;;4.10;;
57191;SDS011;43052;52.588;13.396;2022-09-09T06:09:01;6.80;;;3.83;;
57191;SDS011;43052;52.588;13.396;2022-09-09T06:11:28;5.80;;;3.90;;
57191;SDS011;43052;52.588;13.396;2022-09-09T06:13:57;4.40;;;3.45;;
57191;SDS011;43052;52.588;13.396;2022-09-09T06:16:24;5.80;;;3.65;;
57191;SDS011;43052;52.588;13.396;2022-09-09T06:18:51;5.30;;;3.50;;
57191;SDS011;43052;52.588;13.396;2022-09-09T06:21:19;5.20;;;3.45;;
57191;SDS011;43052;52.588;13.396;2022-09-09T06:23:48;5.22;;;3.88;;
57191;SDS011;43052;52.588;13.396;2022-09-09T06:26:15;5.90;;;3.30;;
57191;SDS011;43052;52.588;13.396;2022-09-09T06:28:46;9.50;;;3.72;;
57191;SDS011;43052;52.588;13.396;2022-09-09T06:31:14;4.88;;;3.00;;
57191;SDS011;43052;52.588;13.396;2022-09-09T06:33:42;5.90;;;3.30;;
57191;SDS011;43052;52.588;13.396;2022-09-09T06:36:12;4.70;;;3.10;;
57191;SDS011;43052;52.588;13.396;2022-09-09T06:38:39;8.45;;;3.42;;
57191;SDS011;43052;52.588;13.396;2022-09-09T06:41:05;5.07;;;2.60;;
57191;SDS011;43052;52.588;13.396;2022-09-09T06:43:30;4.90;;;3.03;;
57191;SDS011;43052;52.588;13.396;2022-09-09T06:46:00;9.40;;;3.72;;
57191;SDS011;43052;52.588;13.396;2022-09-09T06:51:06;4.45;;;2.55;;
57191;SDS011;43052;52.588;13.396;2022-09-09T06:53:33;5.18;;;3.55;;
57191;SDS011;43052;52.588;13.396;2022-09-09T06:56:02;3.97;;;3.10;;
57191;SDS011;43052;52.588;13.396;2022-09-09T06:58:43;6.75;;;3.50;;
57191;SDS011;43052;52.588;13.396;2022-09-09T07:01:12;5.15;;;3.90;;
57191;SDS011;43052;52.588;13.396;2022-09-09T07:03:39;4.57;;;3.80;;
57191;SDS011;43052;52.588;13.396;2022-09-09T07:06:05;6.82;;;3.88;;
57191;SDS011;43052;52.588;13.396;2022-09-09T07:08:32;3.75;;;3.00;;
57191;SDS011;43052;52.588;13.396;2022-09-09T07:11:05;5.65;;;3.38;;
57191;SDS011;43052;52.588;13.396;2022-09-09T07:13:32;3.92;;;3.22;;
57191;SDS011;43052;52.588;13.396;2022-09-09T07:16:04;5.10;;;3.00;;
57191;SDS011;43052;52.588;13.396;2022-09-09T07:18:30;3.58;;;2.85;;
57191;SDS011;43052;52.588;13.396;2022-09-09T07:20:56;4.23;;;3.00;;
57191;SDS011;43052;52.588;13.396;2022-09-09T07:23:21;5.63;;;2.75;;
57191;SDS011;43052;52.588;13.396;2022-09-09T07:25:47;5.88;;;2.85;;
57191;SDS011;43052;52.588;13.396;2022-09-09T07:28:13;3.83;;;2.90;;
57191;SDS011;43052;52.588;13.396;2022-09-09T07:30:38;5.40;;;2.70;;
57191;SDS011;43052;52.588;13.396;2022-09-09T07:33:04;4.65;;;3.10;;
57191;SDS011;43052;52.588;13.396;2022-09-09T07:35:30;6.32;;;3.40;;
57191;SDS011;43052;52.588;13.396;2022-09-09T07:37:55;5.07;;;2.90;;
57191;SDS011;43052;52.588;13.396;2022-09-09T07:40:21;5.35;;;2.85;;
57191;SDS011;43052;52.588;13.396;2022-09-09T07:42:47;4.13;;;2.55;;
57191;SDS011;43052;52.588;13.396;2022-09-09T07:45:12;9.48;;;8.30;;
57191;SDS011;43052;52.588;13.396;2022-09-09T07:47:39;5.10;;;2.80;;
57191;SDS011;43052;52.588;13.396;2022-09-09T07:50:06;5.13;;;3.00;;
57191;SDS011;43052;52.588;13.396;2022-09-09T07:52:33;9.20;;;3.03;;
57191;SDS011;43052;52.588;13.396;2022-09-09T07:54:58;5.97;;;2.83;;
57191;SDS011;43052;52.588;13.396;2022-09-09T07:57:24;4.35;;;2.47;;
57191;SDS011;43052;52.588;13.396;2022-09-09T07:59:50;6.27;;;2.90;;
57191;SDS011;43052;52.588;13.396;2022-09-09T08:02:15;5.90;;;2.33;;
57191;SDS011;43052;52.588;13.396;2022-09-09T08:04:40;7.07;;;2.20;;
57191;SDS011;43052;52.588;13.396;2022-09-09T08:07:06;4.40;;;2.07;;
57191;SDS011;43052;52.588;13.396;2022-09-09T08:09:31;5.30;;;2.40;;
57191;SDS011;43052;52.588;13.396;2022-09-09T08:11:57;3.28;;;2.40;;
57191;SDS011;43052;52.588;13.396;2022-09-09T08:14:23;5.40;;;2.40;;
57191;SDS011;43052;52.588;13.396;2022-09-09T08:16:49;7.22;;;2.40;;
57191;SDS011;43052;52.588;13.396;2022-09-09T08:19:15;5.60;;;2.53;;
57191;SDS011;43052;52.588;13.396;2022-09-09T08:21:40;4.15;;;2.28;;
57191;SDS011;43052;52.588;13.396;2022-09-09T08:24:07;4.10;;;2.28;;
57191;SDS011;43052;52.588;13.396;2022-09-09T08:26:34;5.57;;;2.42;;
57191;SDS011;43052;52.588;13.396;2022-09-09T08:29:02;5.68;;;2.42;;
57191;SDS011;43052;52.588;13.396;2022-09-09T08:31:30;4.97;;;1.95;;
57191;SDS011;43052;52.588;13.396;2022-09-09T08:33:58;6.28;;;2.35;;
57191;SDS011;43052;52.588;13.396;2022-09-09T08:36:25;3.38;;;1.65;;
57191;SDS011;43052;52.588;13.396;2022-09-09T08:38:53;4.05;;;1.70;;
57191;SDS011;43052;52.588;13.396;2022-09-09T08:47:23;3.50;;;1.95;;
57191;SDS011;43052;52.588;13.396;2022-09-09T08:50:05;3.10;;;1.80;;
57191;SDS011;43052;52.588;13.396;2022-09-09T08:52:39;9.32;;;2.05;;
57191;SDS011;43052;52.588;13.396;2022-09-09T08:55:48;4.57;;;1.70;;
57191;SDS011;43052;52.588;13.396;2022-09-09T08:58:19;2.33;;;1.55;;
57191;SDS011;43052;52.588;13.396;2022-09-09T09:03:35;3.17;;;1.67;;
57191;SDS011;43052;52.588;13.396;2022-09-09T09:06:26;3.20;;;1.75;;
57191;SDS011;43052;52.588;13.396;2022-09-09T09:11:47;4.72;;;1.85;;
57191;SDS011;43052;52.588;13.396;2022-09-09T09:14:23;4.53;;;1.95;;
57191;SDS011;43052;52.588;13.396;2022-09-09T09:19:45;4.07;;;1.92;;
57191;SDS011;43052;52.588;13.396;2022-09-09T09:22:19;3.63;;;1.80;;
57191;SDS011;43052;52.588;13.396;2022-09-09T09:25:11;3.45;;;1.80;;
57191;SDS011;43052;52.588;13.396;2022-09-09T09:27:33;2.97;;;1.80;;
57191;SDS011;43052;52.588;13.396;2022-09-09T09:30:02;3.60;;;1.83;;
57191;SDS011;43052;52.588;13.396;2022-09-09T09:32:43;3.80;;;2.00;;
57191;SDS011;43052;52.588;13.396;2022-09-09T09:35:15;3.77;;;2.20;;
57191;SDS011;43052;52.588;13.396;2022-09-09T09:37:41;3.60;;;2.20;;
57191;SDS011;43052;52.588;13.396;2022-09-09T09:40:09;3.65;;;2.00;;
57191;SDS011;43052;52.588;13.396;2022-09-09T09:42:49;5.57;;;2.85;;
57191;SDS011;43052;52.588;13.396;2022-09-09T09:45:28;5.10;;;2.10;;
57191;SDS011;43052;52.588;13.396;2022-09-09T09:48:00;5.63;;;2.53;;
57191;SDS011;43052;52.588;13.396;2022-09-09T09:50:30;3.35;;;2.30;;
57191;SDS011;43052;52.588;13.396;2022-09-09T09:52:59;3.03;;;2.20;;
57191;SDS011;43052;52.588;13.396;2022-09-09T09:55:28;3.88;;;2.33;;
57191;SDS011;43052;52.588;13.396;2022-09-09T09:57:59;2.85;;;2.03;;
57191;SDS011;43052;52.588;13.396;2022-09-09T10:00:26;5.10;;;2.13;;
57191;SDS011;43052;52.588;13.396;2022-09-09T10:02:51;4.20;;;2.10;;
57191;SDS011;43052;52.588;13.396;2022-09-09T10:08:00;4.18;;;2.00;;
57191;SDS011;43052;52.588;13.396;2022-09-09T10:10:33;4.25;;;2.20;;
57191;SDS011;43052;52.588;13.396;2022-09-09T10:37:37;4.57;;;1.60;;
57191;SDS011;43052;52.588;13.396;2022-09-09T10:40:25;4.18;;;1.73;;
57191;SDS011;43052;52.588;13.396;2022-09-09T10:45:51;4.28;;;1.80;;
57191;SDS011;43052;52.588;13.396;2022-09-09T10:48:31;2.95;;;1.52;;
57191;SDS011;43052;52.588;13.396;2022-09-09T10:51:14;3.35;;;1.75;;
57191;SDS011;43052;52.588;13.396;2022-09-09T10:54:02;3.58;;;1.50;;
57191;SDS011;43052;52.588;13.396;2022-09-09T10:56:32;3.55;;;1.70;;
57191;SDS011;43052;52.588;13.396;2022-09-09T10:59:07;3.55;;;1.50;;
57191;SDS011;43052;52.588;13.396;2022-09-09T11:01:39;4.22;;;1.70;;
57191;SDS011;43052;52.588;13.396;2022-09-09T11:04:10;5.60;;;2.08;;
57191;SDS011;43052;52.588;13.396;2022-09-09T11:06:42;3.22;;;1.52;;
57191;SDS011;43052;52.588;13.396;2022-09-09T11:09:16;4.10;;;1.42;;
57191;SDS011;43052;52.588;13.396;2022-09-09T11:11:52;4.10;;;1.52;;
57191;SDS011;43052;52.588;13.396;2022-09-09T11:14:24;3.42;;;1.55;;
57191;SDS011;43052;52.588;13.396;2022-09-09T11:19:33;3.65;;;1.85;;
57191;SDS011;43052;52.588;13.396;2022-09-09T11:24:57;3.78;;;1.50;;
57191;SDS011;43052;52.588;13.396;2022-09-09T11:28:31;2.55;;;1.30;;
57191;SDS011;43052;52.588;13.396;2022-09-09T11:30:22;5.10;;;1.38;;
57191;SDS011;43052;52.588;13.396;2022-09-09T11:33:18;3.05;;;1.40;;
57191;SDS011;43052;52.588;13.396;2022-09-09T11:36:11;2.72;;;1.60;;
57191;SDS011;43052;52.588;13.396;2022-09-09T11:38:52;2.15;;;1.50;;
57191;SDS011;43052;52.588;13.396;2022-09-09T11:41:22;4.63;;;1.60;;
57191;SDS011;43052;52.588;13.396;2022-09-09T11:43:49;3.42;;;1.30;;
57191;SDS011;43052;52.588;13.396;2022-09-09T11:46:16;4.40;;;1.60;;
57191;SDS011;43052;52.588;13.396;2022-09-09T11:48:56;3.67;;;1.50;;
57191;SDS011;43052;52.588;13.396;2022-09-09T11:53:49;3.93;;;1.37;;
57191;SDS011;43052;52.588;13.396;2022-09-09T11:59:24;3.45;;;1.70;;
57191;SDS011;43052;52.588;13.396;2022-09-09T12:02:01;4.22;;;1.50;;
57191;SDS011;43052;52.588;13.396;2022-09-09T12:04:56;3.95;;;1.80;;
57191;SDS011;43052;52.588;13.396;2022-09-09T12:12:50;2.97;;;1.30;;
57191;SDS011;43052;52.588;13.396;2022-09-09T12:15:17;2.67;;;1.50;;
57191;SDS011;43052;52.588;13.396;2022-09-09T12:17:54;4.45;;;1.50;;
57191;SDS011;43052;52.588;13.396;2022-09-09T12:31:46;4.00;;;1.90;;
57191;SDS011;43052;52.588;13.396;2022-09-09T12:40:37;2.60;;;1.15;;
57191;SDS011;43052;52.588;13.396;2022-09-09T12:42:45;3.58;;;1.50;;
57191;SDS011;43052;52.588;13.396;2022-09-09T12:45:15;2.85;;;1.67;;
57191;SDS011;43052;52.588;13.396;2022-09-09T12:47:45;3.97;;;1.50;;
57191;SDS011;43052;52.588;13.396;2022-09-09T12:50:23;2.42;;;1.40;;
57191;SDS011;43052;52.588;13.396;2022-09-09T12:52:51;3.72;;;1.45;;
57191;SDS011;43052;52.588;13.396;2022-09-09T12:55:28;4.10;;;1.40;;
57191;SDS011;43052;52.588;13.396;2022-09-09T12:57:58;3.80;;;1.85;;
57191;SDS011;43052;52.588;13.396;2022-09-09T13:00:25;2.35;;;1.33;;
57191;SDS011;43052;52.588;13.396;2022-09-09T13:02:55;2.95;;;1.40;;
57191;SDS011;43052;52.588;13.396;2022-09-09T13:05:26;2.45;;;1.13;;
57191;SDS011;43052;52.588;13.396;2022-09-09T13:10:33;4.20;;;1.50;;
57191;SDS011;43052;52.588;13.396;2022-09-09T13:13:03;2.22;;;1.23;;
57191;SDS011;43052;52.588;13.396;2022-09-09T13:15:29;3.17;;;1.30;;
57191;SDS011;43052;52.588;13.396;2022-09-09T13:17:56;3.42;;;1.42;;
57191;SDS011;43052;52.588;13.396;2022-09-09T13:20:25;4.07;;;1.30;;
57191;SDS011;43052;52.588;13.396;2022-09-09T13:22:52;3.45;;;1.30;;
57191;SDS011;43052;52.588;13.396;2022-09-09T13:25:28;4.53;;;1.50;;
57191;SDS011;43052;52.588;13.396;2022-09-09T13:30:34;2.17;;;1.35;;
57191;SDS011;43052;52.588;13.396;2022-09-09T13:33:04;3.25;;;1.25;;
57191;SDS011;43052;52.588;13.396;2022-09-09T13:35:29;2.72;;;1.40;;
57191;SDS011;43052;52.588;13.396;2022-09-09T13:37:55;3.13;;;1.48;;
57191;SDS011;43052;52.588;13.396;2022-09-09T13:40:22;3.50;;;1.40;;
57191;SDS011;43052;52.588;13.396;2022-09-09T13:42:50;4.20;;;1.30;;
57191;SDS011;43052;52.588;13.396;2022-09-09T13:45:19;2.25;;;1.30;;
57191;SDS011;43052;52.588;13.396;2022-09-09T13:47:46;3.75;;;1.20;;
57191;SDS011;43052;52.588;13.396;2022-09-09T13:50:26;4.45;;;1.55;;
57191;SDS011;43052;52.588;13.396;2022-09-09T13:52:55;2.75;;;1.55;;
57191;SDS011;43052;52.588;13.396;2022-09-09T13:55:25;2.70;;;1.67;;
57191;SDS011;43052;52.588;13.396;2022-09-09T13:57:53;1.95;;;1.27;;
57191;SDS011;43052;52.588;13.396;2022-09-09T14:00:20;3.38;;;1.35;;
57191;SDS011;43052;52.588;13.396;2022-09-09T14:02:46;2.58;;;1.40;;
57191;SDS011;43052;52.588;13.396;2022-09-09T14:05:12;2.58;;;1.05;;
57191;SDS011;43052;52.588;13.396;2022-09-09T14:07:38;2.95;;;1.13;;
57191;SDS011;43052;52.588;13.396;2022-09-09T14:10:05;4.93;;;1.30;;
57191;SDS011;43052;52.588;13.396;2022-09-09T14:12:31;4.80;;;1.60;;
57191;SDS011;43052;52.588;13.396;2022-09-09T14:14:56;3.35;;;1.40;;
57191;SDS011;43052;52.588;13.396;2022-09-09T14:17:21;3.47;;;1.38;;
57191;SDS011;43052;52.588;13.396;2022-09-09T14:19:47;2.65;;;1.33;;
57191;SDS011;43052;52.588;13.396;2022-09-09T14:22:12;2.03;;;1.20;;
57191;SDS011;43052;52.588;13.396;2022-09-09T14:24:37;2.20;;;1.40;;
57191;SDS011;43052;52.588;13.396;2022-09-09T14:27:02;2.80;;;1.15;;
57191;SDS011;43052;52.588;13.396;2022-09-09T14:29:28;3.25;;;1.30;;
57191;SDS011;43052;52.588;13.396;2022-09-09T14:31:53;4.65;;;1.20;;
57191;SDS011;43052;52.588;13.396;2022-09-09T14:34:18;4.22;;;1.40;;
57191;SDS011;43052;52.588;13.396;2022-09-09T14:36:43;3.08;;;1.40;;
57191;SDS011;43052;52.588;13.396;2022-09-09T14:39:10;2.28;;;1.30;;
57191;SDS011;43052;52.588;13.396;2022-09-09T14:41:35;3.83;;;1.30;;
57191;SDS011;43052;52.588;13.396;2022-09-09T14:44:00;2.22;;;1.20;;
57191;SDS011;43052;52.588;13.396;2022-09-09T14:46:25;2.60;;;1.25;;
57191;SDS011;43052;52.588;13.396;2022-09-09T14:48:51;2.00;;;1.30;;
57191;SDS011;43052;52.588;13.396;2022-09-09T14:51:18;2.85;;;1.40;;
57191;SDS011;43052;52.588;13.396;2022-09-09T14:53:45;4.47;;;1.40;;
57191;SDS011;43052;52.588;13.396;2022-09-09T14:56:15;3.58;;;1.48;;
57191;SDS011;43052;52.588;13.396;2022-09-09T14:58:42;3.25;;;1.35;;
57191;SDS011;43052;52.588;13.396;2022-09-09T15:01:09;4.07;;;1.70;;
57191;SDS011;43052;52.588;13.396;2022-09-09T15:03:36;2.75;;;1.33;;
57191;SDS011;43052;52.588;13.396;2022-09-09T15:06:09;2.95;;;1.58;;
57191;SDS011;43052;52.588;13.396;2022-09-09T15:08:36;5.72;;;1.80;;
57191;SDS011;43052;52.588;13.396;2022-09-09T15:11:03;4.43;;;1.30;;
57191;SDS011;43052;52.588;13.396;2022-09-09T15:13:29;4.68;;;1.48;;
57191;SDS011;43052;52.588;13.396;2022-09-09T15:15:54;5.57;;;1.60;;
57191;SDS011;43052;52.588;13.396;2022-09-09T15:18:20;4.60;;;1.65;;
57191;SDS011;43052;52.588;13.396;2022-09-09T15:20:46;4.25;;;1.55;;
57191;SDS011;43052;52.588;13.396;2022-09-09T15:23:12;5.53;;;1.90;;
57191;SDS011;43052;52.588;13.396;2022-09-09T15:25:38;4.60;;;1.55;;
57191;SDS011;43052;52.588;13.396;2022-09-09T15:28:14;4.20;;;1.42;;
57191;SDS011;43052;52.588;13.396;2022-09-09T15:30:39;2.28;;;1.48;;
57191;SDS011;43052;52.588;13.396;2022-09-09T15:33:07;4.65;;;1.55;;
57191;SDS011;43052;52.588;13.396;2022-09-09T15:35:33;2.13;;;1.35;;
57191;SDS011;43052;52.588;13.396;2022-09-09T15:38:01;3.13;;;1.33;;
57191;SDS011;43052;52.588;13.396;2022-09-09T15:40:27;4.95;;;1.67;;
57191;SDS011;43052;52.588;13.396;2022-09-09T15:42:52;5.60;;;1.63;;
57191;SDS011;43052;52.588;13.396;2022-09-09T15:45:17;2.75;;;1.33;;
57191;SDS011;43052;52.588;13.396;2022-09-09T15:47:42;4.60;;;1.50;;
57191;SDS011;43052;52.588;13.396;2022-09-09T15:50:08;4.15;;;1.58;;
57191;SDS011;43052;52.588;13.396;2022-09-09T15:52:33;2.65;;;1.52;;
57191;SDS011;43052;52.588;13.396;2022-09-09T15:54:59;5.78;;;1.50;;
57191;SDS011;43052;52.588;13.396;2022-09-09T15:57:25;2.72;;;1.40;;
57191;SDS011;43052;52.588;13.396;2022-09-09T15:59:51;3.17;;;1.50;;
57191;SDS011;43052;52.588;13.396;2022-09-09T16:02:16;3.72;;;1.80;;
57191;SDS011;43052;52.588;13.396;2022-09-09T16:04:43;2.63;;;1.50;;
57191;SDS011;43052;52.588;13.396;2022-09-09T16:07:08;3.00;;;1.50;;
57191;SDS011;43052;52.588;13.396;2022-09-09T16:09:33;2.40;;;1.38;;
57191;SDS011;43052;52.588;13.396;2022-09-09T16:12:00;3.30;;;1.40;;
57191;SDS011;43052;52.588;13.396;2022-09-09T16:14:27;4.65;;;1.70;;
57191;SDS011;43052;52.588;13.396;2022-09-09T16:16:53;3.10;;;1.70;;
57191;SDS011;43052;52.588;13.396;2022-09-09T16:19:18;5.10;;;2.30;;
57191;SDS011;43052;52.588;13.396;2022-09-09T16:21:45;4.68;;;1.92;;
57191;SDS011;43052;52.588;13.396;2022-09-09T16:24:13;4.18;;;2.30;;
57191;SDS011;43052;52.588;13.396;2022-09-09T16:26:41;3.53;;;1.83;;
57191;SDS011;43052;52.588;13.396;2022-09-09T16:29:12;3.97;;;1.95;;
57191;SDS011;43052;52.588;13.396;2022-09-09T16:31:39;3.08;;;1.73;;
57191;SDS011;43052;52.588;13.396;2022-09-09T16:34:05;3.13;;;1.80;;
57191;SDS011;43052;52.588;13.396;2022-09-09T16:36:31;3.45;;;1.98;;
57191;SDS011;43052;52.588;13.396;2022-09-09T16:39:00;5.13;;;2.15;;
57191;SDS011;43052;52.588;13.396;2022-09-09T16:41:27;2.53;;;1.70;;
57191;SDS011;43052;52.588;13.396;2022-09-09T16:43:57;4.25;;;1.85;;
57191;SDS011;43052;52.588;13.396;2022-09-09T16:46:24;5.40;;;2.10;;
57191;SDS011;43052;52.588;13.396;2022-09-09T16:48:52;4.18;;;1.70;;
57191;SDS011;43052;52.588;13.396;2022-09-09T16:51:20;9.10;;;2.22;;